sensor_id;sensor_type;location;lat;lon;timestamp;pressure;altitude;pressure_sealevel;temperature;humidity
61528;BME280;47395;42.032;-8.634;2023-04-05T00:00:37;101149.94;;;15.33;58.36
61528;BME280;47395;42.032;-8.634;2023-04-05T00:02:38;101151.47;;;15.37;57.42
61528;BME280;47395;42.032;-8.634;2023-04-05T00:04:40;101160.19;;;15.39;57.13
61528;BME280;47395;42.032;-8.634;2023-04-05T00:06:49;101159.13;;;15.42;57.06
61528;BME280;47395;42.032;-8.634;2023-04-05T00:08:52;101155.16;;;15.49;57.10
61528;BME280;47395;42.032;-8.634;2023-04-05T00:10:55;101155.25;;;15.47;55.69
61528;BME280;47395;42.032;-8.634;2023-04-05T00:12:59;101158.66;;;15.49;54.63
61528;BME280;47395;42.032;-8.634;2023-04-05T00:15:00;101153.00;;;15.26;53.68
61528;BME280;47395;42.032;-8.634;2023-04-05T00:17:01;101162.28;;;15.19;54.61
61528;BME280;47395;42.032;-8.634;2023-04-05T00:19:02;101161.97;;;14.95;54.65
61528;BME280;47395;42.032;-8.634;2023-04-05T00:21:03;101168.09;;;14.81;55.10
61528;BME280;47395;42.032;-8.634;2023-04-05T00:23:04;101177.03;;;14.64;55.74
61528;BME280;47395;42.032;-8.634;2023-04-05T00:25:06;101180.31;;;14.53;56.46
61528;BME280;47395;42.032;-8.634;2023-04-05T00:27:07;101181.97;;;14.39;56.49
61528;BME280;47395;42.032;-8.634;2023-04-05T00:29:08;101180.88;;;14.27;56.86
61528;BME280;47395;42.032;-8.634;2023-04-05T00:31:11;101183.19;;;14.17;57.21
61528;BME280;47395;42.032;-8.634;2023-04-05T00:33:12;101177.31;;;14.12;57.35
61528;BME280;47395;42.032;-8.634;2023-04-05T00:35:13;101178.16;;;13.96;57.48
61528;BME280;47395;42.032;-8.634;2023-04-05T00:37:14;101177.66;;;13.90;58.28
61528;BME280;47395;42.032;-8.634;2023-04-05T00:39:15;101176.97;;;13.86;58.72
61528;BME280;47395;42.032;-8.634;2023-04-05T00:41:16;101176.19;;;13.84;59.08
61528;BME280;47395;42.032;-8.634;2023-04-05T00:43:16;101182.44;;;13.83;59.20
61528;BME280;47395;42.032;-8.634;2023-04-05T00:45:17;101180.06;;;13.78;59.67
61528;BME280;47395;42.032;-8.634;2023-04-05T00:47:18;101176.53;;;13.78;58.70
61528;BME280;47395;42.032;-8.634;2023-04-05T00:49:19;101175.44;;;13.82;59.71
61528;BME280;47395;42.032;-8.634;2023-04-05T00:51:20;101167.25;;;13.87;59.66
61528;BME280;47395;42.032;-8.634;2023-04-05T00:53:23;101172.03;;;13.96;60.76
61528;BME280;47395;42.032;-8.634;2023-04-05T00:55:26;101178.69;;;14.03;58.84
61528;BME280;47395;42.032;-8.634;2023-04-05T00:57:27;101179.78;;;13.99;58.87
61528;BME280;47395;42.032;-8.634;2023-04-05T00:59:29;101174.25;;;13.88;59.31
61528;BME280;47395;42.032;-8.634;2023-04-05T01:01:31;101178.53;;;13.74;59.92
61528;BME280;47395;42.032;-8.634;2023-04-05T01:03:36;101179.88;;;13.65;60.48
61528;BME280;47395;42.032;-8.634;2023-04-05T01:05:52;101183.81;;;13.58;60.80
61528;BME280;47395;42.032;-8.634;2023-04-05T01:10:43;101181.63;;;13.49;60.67
61528;BME280;47395;42.032;-8.634;2023-04-05T01:12:45;101174.47;;;13.51;60.80
61528;BME280;47395;42.032;-8.634;2023-04-05T01:14:48;101174.31;;;13.54;60.75
61528;BME280;47395;42.032;-8.634;2023-04-05T01:16:49;101177.03;;;13.52;59.67
61528;BME280;47395;42.032;-8.634;2023-04-05T01:18:52;101172.03;;;13.46;60.32
61528;BME280;47395;42.032;-8.634;2023-04-05T01:21:43;101169.03;;;13.36;60.00
61528;BME280;47395;42.032;-8.634;2023-04-05T01:31:55;101166.00;;;13.10;60.41
61528;BME280;47395;42.032;-8.634;2023-04-05T01:34:11;101160.84;;;13.07;60.82
61528;BME280;47395;42.032;-8.634;2023-04-05T01:36:40;101158.47;;;13.02;60.93
61528;BME280;47395;42.032;-8.634;2023-04-05T01:38:48;101162.97;;;13.00;60.97
61528;BME280;47395;42.032;-8.634;2023-04-05T01:40:50;101152.47;;;12.99;62.20
61528;BME280;47395;42.032;-8.634;2023-04-05T01:42:52;101158.06;;;13.10;63.20
61528;BME280;47395;42.032;-8.634;2023-04-05T01:44:55;101165.41;;;13.21;63.20
61528;BME280;47395;42.032;-8.634;2023-04-05T01:46:56;101162.69;;;13.23;61.02
61528;BME280;47395;42.032;-8.634;2023-04-05T01:48:58;101158.16;;;13.25;60.73
61528;BME280;47395;42.032;-8.634;2023-04-05T01:50:59;101156.53;;;13.22;61.19
61528;BME280;47395;42.032;-8.634;2023-04-05T01:53:00;101154.91;;;13.19;60.62
61528;BME280;47395;42.032;-8.634;2023-04-05T01:55:02;101148.16;;;13.14;61.15
61528;BME280;47395;42.032;-8.634;2023-04-05T01:57:04;101158.19;;;13.07;61.39
61528;BME280;47395;42.032;-8.634;2023-04-05T01:59:05;101159.56;;;12.98;61.29
61528;BME280;47395;42.032;-8.634;2023-04-05T02:01:06;101150.28;;;12.89;61.93
61528;BME280;47395;42.032;-8.634;2023-04-05T02:03:10;101146.72;;;12.90;62.09
61528;BME280;47395;42.032;-8.634;2023-04-05T02:05:11;101150.00;;;12.96;61.92
61528;BME280;47395;42.032;-8.634;2023-04-05T02:07:12;101143.75;;;12.97;61.88
61528;BME280;47395;42.032;-8.634;2023-04-05T02:09:16;101143.75;;;12.97;62.15
61528;BME280;47395;42.032;-8.634;2023-04-05T02:11:19;101142.22;;;12.92;61.93
61528;BME280;47395;42.032;-8.634;2023-04-05T02:13:20;101141.81;;;12.83;61.85
61528;BME280;47395;42.032;-8.634;2023-04-05T02:15:25;101141.81;;;12.83;62.12
61528;BME280;47395;42.032;-8.634;2023-04-05T02:17:26;101150.91;;;12.77;62.65
61528;BME280;47395;42.032;-8.634;2023-04-05T02:19:34;101147.53;;;12.75;62.92
61528;BME280;47395;42.032;-8.634;2023-04-05T02:21:42;101144.19;;;12.71;63.18
61528;BME280;47395;42.032;-8.634;2023-04-05T02:23:47;101145.72;;;12.58;62.88
61528;BME280;47395;42.032;-8.634;2023-04-05T02:25:48;101145.03;;;12.54;63.29
61528;BME280;47395;42.032;-8.634;2023-04-05T02:27:49;101144.88;;;12.57;63.44
61528;BME280;47395;42.032;-8.634;2023-04-05T02:29:52;101147.44;;;12.59;63.82
61528;BME280;47395;42.032;-8.634;2023-04-05T02:31:55;101147.28;;;12.62;63.63
61528;BME280;47395;42.032;-8.634;2023-04-05T02:33:56;101154.84;;;12.70;63.96
61528;BME280;47395;42.032;-8.634;2023-04-05T02:35:58;101148.53;;;12.72;63.04
61528;BME280;47395;42.032;-8.634;2023-04-05T02:38:02;101150.63;;;12.65;62.21
61528;BME280;47395;42.032;-8.634;2023-04-05T02:40:11;101150.56;;;12.67;62.82
61528;BME280;47395;42.032;-8.634;2023-04-05T02:42:12;101142.78;;;12.64;62.76
61528;BME280;47395;42.032;-8.634;2023-04-05T02:44:13;101152.47;;;12.46;62.62
61528;BME280;47395;42.032;-8.634;2023-04-05T02:46:15;101145.72;;;12.40;63.87
61528;BME280;47395;42.032;-8.634;2023-04-05T02:48:16;101151.41;;;12.50;62.31
61528;BME280;47395;42.032;-8.634;2023-04-05T02:50:18;101134.16;;;12.25;62.47
61528;BME280;47395;42.032;-8.634;2023-04-05T02:52:20;101132.13;;;12.30;63.54
61528;BME280;47395;42.032;-8.634;2023-04-05T02:54:22;101142.69;;;12.30;63.94
61528;BME280;47395;42.032;-8.634;2023-04-05T02:56:25;101137.25;;;12.51;65.55
61528;BME280;47395;42.032;-8.634;2023-04-05T02:58:27;101132.59;;;12.74;65.17
61528;BME280;47395;42.032;-8.634;2023-04-05T03:00:28;101131.94;;;12.86;64.33
61528;BME280;47395;42.032;-8.634;2023-04-05T03:02:31;101132.25;;;12.98;65.15
61528;BME280;47395;42.032;-8.634;2023-04-05T03:04:33;101128.53;;;13.18;64.08
61528;BME280;47395;42.032;-8.634;2023-04-05T03:06:36;101128.81;;;13.29;62.17
61528;BME280;47395;42.032;-8.634;2023-04-05T03:08:39;101132.72;;;13.22;61.34
61528;BME280;47395;42.032;-8.634;2023-04-05T03:10:46;101133.91;;;13.16;61.04
61528;BME280;47395;42.032;-8.634;2023-04-05T03:12:50;101129.38;;;13.02;61.30
61528;BME280;47395;42.032;-8.634;2023-04-05T03:14:54;101132.03;;;12.85;61.51
61528;BME280;47395;42.032;-8.634;2023-04-05T03:16:57;101125.50;;;12.74;61.73
61528;BME280;47395;42.032;-8.634;2023-04-05T03:19:06;101134.16;;;12.60;62.11
61528;BME280;47395;42.032;-8.634;2023-04-05T03:21:10;101132.91;;;12.50;62.79
61528;BME280;47395;42.032;-8.634;2023-04-05T03:23:17;101131.66;;;12.22;62.16
61528;BME280;47395;42.032;-8.634;2023-04-05T03:25:21;101131.66;;;12.22;62.56
61528;BME280;47395;42.032;-8.634;2023-04-05T03:27:22;101133.47;;;12.20;63.93
61528;BME280;47395;42.032;-8.634;2023-04-05T03:29:35;101139.56;;;12.22;63.99
61528;BME280;47395;42.032;-8.634;2023-04-05T03:31:44;101138.47;;;12.08;64.41
61528;BME280;47395;42.032;-8.634;2023-04-05T03:33:48;101143.97;;;12.02;63.92
61528;BME280;47395;42.032;-8.634;2023-04-05T03:35:49;101142.53;;;11.96;64.27
61528;BME280;47395;42.032;-8.634;2023-04-05T03:37:50;101136.69;;;11.90;64.99
61528;BME280;47395;42.032;-8.634;2023-04-05T03:39:52;101146.31;;;11.91;64.54
61528;BME280;47395;42.032;-8.634;2023-04-05T03:41:53;101133.88;;;11.93;64.59
61528;BME280;47395;42.032;-8.634;2023-04-05T03:43:54;101129.91;;;11.84;64.62
61528;BME280;47395;42.032;-8.634;2023-04-05T03:45:57;101127.97;;;11.87;64.94
61528;BME280;47395;42.032;-8.634;2023-04-05T03:48:01;101130.53;;;11.89;64.89
61528;BME280;47395;42.032;-8.634;2023-04-05T03:50:03;101141.72;;;11.94;64.93
61528;BME280;47395;42.032;-8.634;2023-04-05T03:52:05;101141.72;;;11.94;64.61
61528;BME280;47395;42.032;-8.634;2023-04-05T03:54:06;101136.44;;;11.94;64.82
61528;BME280;47395;42.032;-8.634;2023-04-05T03:56:08;101131.59;;;11.85;65.03
61528;BME280;47395;42.032;-8.634;2023-04-05T03:58:18;101138.88;;;11.99;65.70
61528;BME280;47395;42.032;-8.634;2023-04-05T04:00:20;101141.78;;;12.12;64.46
61528;BME280;47395;42.032;-8.634;2023-04-05T04:04:52;101143.59;;;12.11;63.75
61528;BME280;47395;42.032;-8.634;2023-04-05T04:06:53;101135.28;;;12.00;64.85
61528;BME280;47395;42.032;-8.634;2023-04-05T04:08:57;101132.38;;;12.06;63.94
61528;BME280;47395;42.032;-8.634;2023-04-05T04:10:59;101128.53;;;12.13;64.76
61528;BME280;47395;42.032;-8.634;2023-04-05T04:13:06;101131.66;;;12.22;63.99
61528;BME280;47395;42.032;-8.634;2023-04-05T04:15:08;101129.94;;;12.21;63.37
61528;BME280;47395;42.032;-8.634;2023-04-05T04:19:59;101133.41;;;12.02;64.69
61528;BME280;47395;42.032;-8.634;2023-04-05T04:22:30;101134.28;;;12.22;65.13
61528;BME280;47395;42.032;-8.634;2023-04-05T04:25:02;101138.63;;;12.23;62.06
61528;BME280;47395;42.032;-8.634;2023-04-05T04:27:39;101149.16;;;12.05;62.85
61528;BME280;47395;42.032;-8.634;2023-04-05T04:29:55;101147.13;;;11.91;62.88
61528;BME280;47395;42.032;-8.634;2023-04-05T04:32:40;101150.16;;;11.83;64.05
61528;BME280;47395;42.032;-8.634;2023-04-05T04:35:28;101151.22;;;11.79;65.12
61528;BME280;47395;42.032;-8.634;2023-04-05T04:38:04;101154.03;;;11.76;63.28
61528;BME280;47395;42.032;-8.634;2023-04-05T04:40:37;101154.31;;;11.70;63.40
61528;BME280;47395;42.032;-8.634;2023-04-05T04:43:19;101163.28;;;11.66;63.73
61528;BME280;47395;42.032;-8.634;2023-04-05T04:45:58;101168.38;;;11.70;63.79
61528;BME280;47395;42.032;-8.634;2023-04-05T04:48:12;101164.84;;;11.70;64.07
61528;BME280;47395;42.032;-8.634;2023-04-05T04:50:24;101165.16;;;11.64;64.15
61528;BME280;47395;42.032;-8.634;2023-04-05T04:52:25;101166.41;;;11.55;64.23
61528;BME280;47395;42.032;-8.634;2023-04-05T04:54:26;101168.47;;;11.48;64.35
61528;BME280;47395;42.032;-8.634;2023-04-05T04:56:27;101168.31;;;11.32;64.21
61528;BME280;47395;42.032;-8.634;2023-04-05T04:58:29;101168.75;;;11.22;64.76
61528;BME280;47395;42.032;-8.634;2023-04-05T05:00:39;101171.72;;;11.15;65.33
61528;BME280;47395;42.032;-8.634;2023-04-05T05:02:41;101168.50;;;11.08;65.29
61528;BME280;47395;42.032;-8.634;2023-04-05T05:04:43;101171.44;;;11.00;65.53
61528;BME280;47395;42.032;-8.634;2023-04-05T05:06:44;101165.75;;;10.90;66.00
61528;BME280;47395;42.032;-8.634;2023-04-05T05:08:45;101176.41;;;10.87;65.85
61528;BME280;47395;42.032;-8.634;2023-04-05T05:10:50;101181.22;;;10.77;66.38
61528;BME280;47395;42.032;-8.634;2023-04-05T05:12:51;101184.13;;;10.71;66.40
61528;BME280;47395;42.032;-8.634;2023-04-05T05:14:53;101185.16;;;10.67;66.67
61528;BME280;47395;42.032;-8.634;2023-04-05T05:16:56;101185.44;;;10.61;66.94
61528;BME280;47395;42.032;-8.634;2023-04-05T05:19:02;101183.09;;;10.53;67.17
61528;BME280;47395;42.032;-8.634;2023-04-05T05:21:12;101179.91;;;10.44;67.12
61528;BME280;47395;42.032;-8.634;2023-04-05T05:23:13;101185.28;;;10.41;67.32
61528;BME280;47395;42.032;-8.634;2023-04-05T05:25:14;101194.34;;;10.34;67.40
61528;BME280;47395;42.032;-8.634;2023-04-05T05:27:14;101196.38;;;10.27;67.61
61528;BME280;47395;42.032;-8.634;2023-04-05T05:29:15;101193.03;;;10.24;68.06
61528;BME280;47395;42.032;-8.634;2023-04-05T05:31:19;101195.03;;;10.17;68.04
61528;BME280;47395;42.032;-8.634;2023-04-05T05:33:19;101197.00;;;10.12;67.88
61528;BME280;47395;42.032;-8.634;2023-04-05T05:35:20;101197.06;;;10.10;68.18
61528;BME280;47395;42.032;-8.634;2023-04-05T05:37:31;101207.81;;;10.04;68.37
61528;BME280;47395;42.032;-8.634;2023-04-05T05:39:32;101208.63;;;10.06;68.51
61528;BME280;47395;42.032;-8.634;2023-04-05T05:41:32;101208.84;;;10.00;68.48
61528;BME280;47395;42.032;-8.634;2023-04-05T05:43:33;101213.06;;;10.04;68.93
61528;BME280;47395;42.032;-8.634;2023-04-05T05:45:34;101214.91;;;10.02;69.26
61528;BME280;47395;42.032;-8.634;2023-04-05T05:47:35;101208.44;;;10.11;69.11
61528;BME280;47395;42.032;-8.634;2023-04-05T05:49:36;101204.81;;;10.13;69.43
61528;BME280;47395;42.032;-8.634;2023-04-05T05:51:37;101204.66;;;10.18;69.20
61528;BME280;47395;42.032;-8.634;2023-04-05T05:53:38;101208.06;;;10.20;69.04
61528;BME280;47395;42.032;-8.634;2023-04-05T05:55:41;101214.13;;;10.22;68.86
61528;BME280;47395;42.032;-8.634;2023-04-05T05:57:42;101210.28;;;10.31;68.99
61528;BME280;47395;42.032;-8.634;2023-04-05T05:59:43;101212.72;;;10.36;68.76
61528;BME280;47395;42.032;-8.634;2023-04-05T06:01:44;101214.09;;;10.24;67.94
61528;BME280;47395;42.032;-8.634;2023-04-05T06:03:46;101208.50;;;10.31;68.45
61528;BME280;47395;42.032;-8.634;2023-04-05T06:05:53;101216.34;;;10.33;68.51
61528;BME280;47395;42.032;-8.634;2023-04-05T06:07:54;101218.00;;;10.36;68.58
61528;BME280;47395;42.032;-8.634;2023-04-05T06:09:55;101223.22;;;10.37;68.47
61528;BME280;47395;42.032;-8.634;2023-04-05T06:11:58;101225.97;;;10.34;67.92
61528;BME280;47395;42.032;-8.634;2023-04-05T06:14:00;101227.50;;;10.40;68.47
61528;BME280;47395;42.032;-8.634;2023-04-05T06:16:01;101224.91;;;10.38;68.78
61528;BME280;47395;42.032;-8.634;2023-04-05T06:18:02;101227.94;;;10.51;68.42
61528;BME280;47395;42.032;-8.634;2023-04-05T06:20:03;101228.53;;;10.58;67.75
61528;BME280;47395;42.032;-8.634;2023-04-05T06:22:05;101227.59;;;10.61;67.61
61528;BME280;47395;42.032;-8.634;2023-04-05T06:24:06;101233.31;;;10.70;67.48
61528;BME280;47395;42.032;-8.634;2023-04-05T06:26:07;101227.66;;;10.80;67.71
61528;BME280;47395;42.032;-8.634;2023-04-05T06:28:08;101226.59;;;10.84;66.59
61528;BME280;47395;42.032;-8.634;2023-04-05T06:30:09;101228.25;;;10.87;68.29
61528;BME280;47395;42.032;-8.634;2023-04-05T06:32:11;101239.41;;;11.14;66.68
61528;BME280;47395;42.032;-8.634;2023-04-05T06:34:12;101223.78;;;11.30;66.23
61528;BME280;47395;42.032;-8.634;2023-04-05T06:36:15;101237.81;;;11.52;64.53
61528;BME280;47395;42.032;-8.634;2023-04-05T06:38:16;101239.97;;;11.62;64.01
61528;BME280;47395;42.032;-8.634;2023-04-05T06:40:18;101238.63;;;11.73;64.42
61528;BME280;47395;42.032;-8.634;2023-04-05T06:42:19;101240.06;;;11.80;63.46
61528;BME280;47395;42.032;-8.634;2023-04-05T06:44:27;101244.06;;;11.89;62.47
61528;BME280;47395;42.032;-8.634;2023-04-05T06:46:28;101246.34;;;11.97;62.20
61528;BME280;47395;42.032;-8.634;2023-04-05T06:48:28;101245.47;;;12.35;60.96
61528;BME280;47395;42.032;-8.634;2023-04-05T06:50:29;101245.03;;;13.16;58.89
61528;BME280;47395;42.032;-8.634;2023-04-05T06:52:31;101248.06;;;14.26;55.69
61528;BME280;47395;42.032;-8.634;2023-04-05T06:54:33;101255.66;;;15.40;51.87
61528;BME280;47395;42.032;-8.634;2023-04-05T06:56:34;101252.41;;;16.23;49.41
61528;BME280;47395;42.032;-8.634;2023-04-05T06:58:34;101254.69;;;17.10;47.89
61528;BME280;47395;42.032;-8.634;2023-04-05T07:00:36;101248.72;;;17.84;45.85
61528;BME280;47395;42.032;-8.634;2023-04-05T07:02:37;101251.53;;;18.20;43.91
61528;BME280;47395;42.032;-8.634;2023-04-05T07:04:38;101251.19;;;18.25;43.86
61528;BME280;47395;42.032;-8.634;2023-04-05T07:06:39;101253.31;;;18.93;42.39
61528;BME280;47395;42.032;-8.634;2023-04-05T07:08:41;101246.38;;;19.38;41.72
61528;BME280;47395;42.032;-8.634;2023-04-05T07:10:42;101255.13;;;19.63;41.11
61528;BME280;47395;42.032;-8.634;2023-04-05T07:12:42;101257.19;;;19.93;39.96
61528;BME280;47395;42.032;-8.634;2023-04-05T07:14:43;101257.75;;;20.64;40.65
61528;BME280;47395;42.032;-8.634;2023-04-05T07:16:44;101268.31;;;20.98;39.73
61528;BME280;47395;42.032;-8.634;2023-04-05T07:18:46;101264.22;;;21.16;39.00
61528;BME280;47395;42.032;-8.634;2023-04-05T07:20:47;101266.97;;;21.57;37.62
61528;BME280;47395;42.032;-8.634;2023-04-05T07:22:52;101269.44;;;21.17;36.62
61528;BME280;47395;42.032;-8.634;2023-04-05T07:24:53;101264.59;;;22.04;36.22
61528;BME280;47395;42.032;-8.634;2023-04-05T07:26:55;101269.53;;;21.99;36.20
61528;BME280;47395;42.032;-8.634;2023-04-05T07:28:56;101271.56;;;22.17;34.81
61528;BME280;47395;42.032;-8.634;2023-04-05T07:30:57;101270.09;;;22.64;34.95
61528;BME280;47395;42.032;-8.634;2023-04-05T07:32:58;101278.19;;;23.41;33.44
61528;BME280;47395;42.032;-8.634;2023-04-05T07:34:59;101267.09;;;24.20;32.13
61528;BME280;47395;42.032;-8.634;2023-04-05T07:36:59;101270.31;;;24.60;31.18
61528;BME280;47395;42.032;-8.634;2023-04-05T07:39:02;101268.75;;;25.12;31.00
61528;BME280;47395;42.032;-8.634;2023-04-05T07:41:04;101270.19;;;25.33;29.85
61528;BME280;47395;42.032;-8.634;2023-04-05T07:43:05;101274.97;;;26.17;29.07
61528;BME280;47395;42.032;-8.634;2023-04-05T07:45:07;101278.94;;;26.56;28.37
61528;BME280;47395;42.032;-8.634;2023-04-05T07:47:08;101277.41;;;26.37;27.38
61528;BME280;47395;42.032;-8.634;2023-04-05T07:49:11;101272.09;;;26.19;28.14
61528;BME280;47395;42.032;-8.634;2023-04-05T07:51:12;101279.28;;;26.78;27.40
61528;BME280;47395;42.032;-8.634;2023-04-05T07:53:16;101281.31;;;27.18;27.63
61528;BME280;47395;42.032;-8.634;2023-04-05T07:55:16;101279.28;;;27.76;26.53
61528;BME280;47395;42.032;-8.634;2023-04-05T07:57:18;101279.44;;;28.15;25.11
61528;BME280;47395;42.032;-8.634;2023-04-05T07:59:19;101277.72;;;28.92;24.83
61528;BME280;47395;42.032;-8.634;2023-04-05T08:01:20;101282.81;;;29.41;24.50
61528;BME280;47395;42.032;-8.634;2023-04-05T08:03:22;101280.38;;;29.16;24.46
61528;BME280;47395;42.032;-8.634;2023-04-05T08:05:23;101280.28;;;29.84;24.24
61528;BME280;47395;42.032;-8.634;2023-04-05T08:07:24;101282.38;;;30.19;23.82
61528;BME280;47395;42.032;-8.634;2023-04-05T08:09:24;101276.75;;;29.39;23.88
61528;BME280;47395;42.032;-8.634;2023-04-05T08:11:25;101277.28;;;29.49;23.81
61528;BME280;47395;42.032;-8.634;2023-04-05T08:13:26;101273.25;;;28.76;24.74
61528;BME280;47395;42.032;-8.634;2023-04-05T08:15:27;101277.94;;;28.83;25.29
61528;BME280;47395;42.032;-8.634;2023-04-05T08:17:27;101282.44;;;29.89;23.90
61528;BME280;47395;42.032;-8.634;2023-04-05T08:19:29;101278.03;;;30.47;23.16
61528;BME280;47395;42.032;-8.634;2023-04-05T08:21:30;101269.88;;;30.69;22.86
61528;BME280;47395;42.032;-8.634;2023-04-05T08:23:31;101279.16;;;30.74;23.44
61528;BME280;47395;42.032;-8.634;2023-04-05T08:25:32;101283.13;;;31.64;22.13
61528;BME280;47395;42.032;-8.634;2023-04-05T08:27:33;101284.78;;;32.14;21.21
61528;BME280;47395;42.032;-8.634;2023-04-05T08:29:34;101286.69;;;32.41;20.93
61528;BME280;47395;42.032;-8.634;2023-04-05T08:31:35;101288.84;;;32.52;20.93
61528;BME280;47395;42.032;-8.634;2023-04-05T08:33:36;101280.84;;;32.98;20.77
61528;BME280;47395;42.032;-8.634;2023-04-05T08:35:37;101282.28;;;32.33;20.93
61528;BME280;47395;42.032;-8.634;2023-04-05T08:37:41;101283.81;;;32.69;20.75
61528;BME280;47395;42.032;-8.634;2023-04-05T08:39:41;101276.66;;;32.75;21.23
61528;BME280;47395;42.032;-8.634;2023-04-05T08:41:51;101278.78;;;33.14;20.67
61528;BME280;47395;42.032;-8.634;2023-04-05T08:43:59;101283.28;;;32.05;20.94
61528;BME280;47395;42.032;-8.634;2023-04-05T08:46:02;101281.59;;;33.53;20.76
61528;BME280;47395;42.032;-8.634;2023-04-05T08:48:06;101281.53;;;33.73;20.44
61528;BME280;47395;42.032;-8.634;2023-04-05T08:50:09;101278.84;;;34.44;19.72
61528;BME280;47395;42.032;-8.634;2023-04-05T08:52:10;101276.16;;;34.88;18.31
61528;BME280;47395;42.032;-8.634;2023-04-05T08:54:11;101275.84;;;34.78;17.95
61528;BME280;47395;42.032;-8.634;2023-04-05T08:56:26;101266.78;;;34.78;18.45
61528;BME280;47395;42.032;-8.634;2023-04-05T08:58:30;101269.28;;;34.54;19.42
61528;BME280;47395;42.032;-8.634;2023-04-05T09:00:33;101270.19;;;34.15;19.47
61528;BME280;47395;42.032;-8.634;2023-04-05T09:02:35;101277.81;;;34.38;19.48
61528;BME280;47395;42.032;-8.634;2023-04-05T09:04:37;101277.09;;;34.82;18.32
61528;BME280;47395;42.032;-8.634;2023-04-05T09:06:44;101277.03;;;33.92;19.98
61528;BME280;47395;42.032;-8.634;2023-04-05T09:08:47;101274.03;;;34.01;19.77
61528;BME280;47395;42.032;-8.634;2023-04-05T09:10:49;101270.31;;;33.88;20.01
61528;BME280;47395;42.032;-8.634;2023-04-05T09:12:51;101277.44;;;33.96;19.77
61528;BME280;47395;42.032;-8.634;2023-04-05T09:14:52;101270.19;;;34.15;19.40
61528;BME280;47395;42.032;-8.634;2023-04-05T09:16:55;101265.06;;;34.32;19.71
61528;BME280;47395;42.032;-8.634;2023-04-05T09:18:56;101265.22;;;34.37;19.38
61528;BME280;47395;42.032;-8.634;2023-04-05T09:21:04;101274.50;;;35.50;17.99
61528;BME280;47395;42.032;-8.634;2023-04-05T09:23:05;101272.13;;;34.91;19.47
61528;BME280;47395;42.032;-8.634;2023-04-05T09:25:06;101280.28;;;35.42;17.96
61528;BME280;47395;42.032;-8.634;2023-04-05T09:27:13;101279.66;;;35.77;17.48
61528;BME280;47395;42.032;-8.634;2023-04-05T09:29:29;101277.94;;;35.95;17.49
61528;BME280;47395;42.032;-8.634;2023-04-05T09:31:35;101276.63;;;35.30;18.40
61528;BME280;47395;42.032;-8.634;2023-04-05T09:33:41;101264.25;;;35.01;18.37
61528;BME280;47395;42.032;-8.634;2023-04-05T09:35:42;101268.91;;;36.49;17.76
61528;BME280;47395;42.032;-8.634;2023-04-05T09:37:59;101269.16;;;36.60;17.53
61528;BME280;47395;42.032;-8.634;2023-04-05T09:40:02;101271.91;;;36.60;17.53
61528;BME280;47395;42.032;-8.634;2023-04-05T09:42:13;101265.78;;;37.41;16.47
61528;BME280;47395;42.032;-8.634;2023-04-05T09:44:17;101265.84;;;36.81;16.90
61528;BME280;47395;42.032;-8.634;2023-04-05T09:46:31;101266.16;;;36.25;17.06
61528;BME280;47395;42.032;-8.634;2023-04-05T09:48:51;101262.38;;;34.76;18.79
61528;BME280;47395;42.032;-8.634;2023-04-05T09:51:03;101263.31;;;35.14;18.28
61528;BME280;47395;42.032;-8.634;2023-04-05T09:53:11;101260.50;;;35.89;18.67
61528;BME280;47395;42.032;-8.634;2023-04-05T09:55:26;101261.41;;;36.14;17.68
61528;BME280;47395;42.032;-8.634;2023-04-05T09:57:28;101265.38;;;36.73;16.74
61528;BME280;47395;42.032;-8.634;2023-04-05T09:59:32;101263.34;;;35.83;17.61
61528;BME280;47395;42.032;-8.634;2023-04-05T10:01:33;101263.09;;;36.81;16.96
61528;BME280;47395;42.032;-8.634;2023-04-05T10:03:45;101264.22;;;37.86;16.06
61528;BME280;47395;42.032;-8.634;2023-04-05T10:05:54;101268.09;;;38.03;16.40
61528;BME280;47395;42.032;-8.634;2023-04-05T10:07:55;101257.34;;;37.60;15.96
61528;BME280;47395;42.032;-8.634;2023-04-05T10:09:56;101256.06;;;37.63;15.71
61528;BME280;47395;42.032;-8.634;2023-04-05T10:11:57;101250.09;;;37.54;16.22
61528;BME280;47395;42.032;-8.634;2023-04-05T10:14:01;101259.91;;;36.18;16.97
61528;BME280;47395;42.032;-8.634;2023-04-05T10:16:05;101247.31;;;37.13;16.80
61528;BME280;47395;42.032;-8.634;2023-04-05T10:18:22;101255.97;;;37.86;15.33
61528;BME280;47395;42.032;-8.634;2023-04-05T10:20:27;101253.78;;;36.82;16.07
61528;BME280;47395;42.032;-8.634;2023-04-05T10:24:53;101254.88;;;38.34;15.01
61528;BME280;47395;42.032;-8.634;2023-04-05T10:27:04;101255.41;;;37.43;14.50
61528;BME280;47395;42.032;-8.634;2023-04-05T10:29:11;101253.19;;;38.16;13.74
61528;BME280;47395;42.032;-8.634;2023-04-05T10:31:28;101256.16;;;38.60;13.43
61528;BME280;47395;42.032;-8.634;2023-04-05T10:33:39;101255.41;;;38.65;15.02
61528;BME280;47395;42.032;-8.634;2023-04-05T10:38:27;101260.97;;;38.53;17.50
61528;BME280;47395;42.032;-8.634;2023-04-05T10:40:31;101251.72;;;38.59;16.36
61528;BME280;47395;42.032;-8.634;2023-04-05T10:42:40;101254.97;;;38.96;15.20
61528;BME280;47395;42.032;-8.634;2023-04-05T10:44:45;101253.22;;;39.07;16.15
61528;BME280;47395;42.032;-8.634;2023-04-05T10:46:52;101255.84;;;39.58;14.70
61528;BME280;47395;42.032;-8.634;2023-04-05T10:48:58;101249.72;;;39.56;15.11
61528;BME280;47395;42.032;-8.634;2023-04-05T10:51:03;101248.47;;;38.62;16.14
61528;BME280;47395;42.032;-8.634;2023-04-05T10:53:05;101246.69;;;37.76;16.01
61528;BME280;47395;42.032;-8.634;2023-04-05T10:55:09;101246.78;;;37.40;16.22
61528;BME280;47395;42.032;-8.634;2023-04-05T10:57:10;101243.66;;;37.48;15.80
61528;BME280;47395;42.032;-8.634;2023-04-05T10:59:12;101243.28;;;36.91;17.33
61528;BME280;47395;42.032;-8.634;2023-04-05T11:01:14;101239.72;;;38.02;13.05
61528;BME280;47395;42.032;-8.634;2023-04-05T11:05:48;101233.78;;;38.22;14.55